Time;durP1;ratioP1;P1;durP2;ratioP2;P2;SDS_P1;SDS_P2;PMS_P1;PMS_P2;Temp;Humidity;BMP_temperature;BMP_pressure;BME280_temperature;BME280_humidity;BME280_pressure;Samples;Min_cycle;Max_cycle;Signal;HPM_P1;HPM_P2
2021/03/15 00:00:50;;;;;;;201.23;116.70;;;;;;;7.14;74.72;101437.94;4959780;28;20038;-85
2021/03/15 00:03:18;;;;;;;197.23;121.68;;;;;;;7.46;74.95;101503.41;4952140;28;20042;-85
2021/03/15 00:05:45;;;;;;;211.05;122.05;;;;;;;7.28;74.73;101457.19;4956572;28;20097;-87
2021/03/15 00:08:12;;;;;;;204.45;121.38;;;;;;;6.94;74.55;101405.69;4948743;28;20039;-85
2021/03/15 00:10:39;;;;;;;216.77;126.47;;;;;;;6.67;75.03;101367.09;4957883;28;20404;-86
2021/03/15 00:13:07;;;;;;;207.20;121.63;;;;;;;7.53;75.15;101516.16;4955479;28;20051;-87
2021/03/15 00:15:35;;;;;;;209.82;124.30;;;;;;;7.46;74.78;101534.56;4952857;28;20038;-87
2021/03/15 00:18:04;;;;;;;207.82;121.25;;;;;;;7.53;75.07;101527.16;4976121;28;20022;-85
2021/03/15 00:20:32;;;;;;;207.98;121.68;;;;;;;6.95;74.09;101382.59;4981353;28;20026;-85
2021/03/15 00:23:00;;;;;;;204.43;122.25;;;;;;;7.42;73.76;101442.38;4982232;28;20507;-85
2021/03/15 00:25:27;;;;;;;235.27;124.82;;;;;;;8.13;73.38;101533.72;4971232;28;20069;-84
2021/03/15 00:27:54;;;;;;;197.25;121.00;;;;;;;8.02;72.74;101473.72;4971917;28;20031;-86
2021/03/15 00:30:22;;;;;;;218.50;126.00;;;;;;;7.56;72.18;101423.09;4968273;28;20035;-84
2021/03/15 00:32:49;;;;;;;225.18;132.75;;;;;;;7.09;72.26;101325.63;4970586;28;20574;-86
2021/03/15 00:35:18;;;;;;;234.68;138.73;;;;;;;7.99;72.31;101461.19;4969226;29;20058;-85
2021/03/15 00:37:46;;;;;;;220.57;131.60;;;;;;;7.39;72.09;101338.13;4973317;28;20035;-85
2021/03/15 00:40:15;;;;;;;214.00;128.00;;;;;;;8.41;71.18;101437.94;4964560;29;20054;-85
2021/03/15 00:42:44;;;;;;;207.30;129.57;;;;;;;8.86;71.01;101506.16;4989413;28;20023;-86
2021/03/15 00:45:13;;;;;;;218.52;130.90;;;;;;;9.09;70.14;101494.53;4974425;28;20302;-86
2021/03/15 00:47:40;;;;;;;212.90;133.65;;;;;;;8.79;69.36;101450.94;4976694;28;20038;-86
2021/03/15 00:50:14;;;;;;;220.10;133.65;;;;;;;9.24;70.10;101529.28;4971688;28;20023;-87
2021/03/15 00:52:41;;;;;;;218.82;135.82;;;;;;;9.40;69.18;101537.06;4981105;28;20090;-86
2021/03/15 00:55:09;;;;;;;224.93;131.95;;;;;;;8.65;68.84;101413.41;4973837;28;20019;-85
2021/03/15 00:57:36;;;;;;;217.40;129.75;;;;;;;8.94;67.65;101425.78;4970015;28;20065;-86
2021/03/15 01:00:05;;;;;;;204.80;123.57;;;;;;;9.28;66.60;101454.03;4985142;28;20030;-85
2021/03/15 01:02:32;;;;;;;209.45;126.53;;;;;;;9.15;66.29;101430.09;4973690;28;20642;-85
2021/03/15 01:04:59;;;;;;;210.52;125.15;;;;;;;8.93;65.72;101368.88;4973888;28;20118;-84
2021/03/15 01:07:27;;;;;;;194.57;118.20;;;;;;;9.78;65.50;101545.50;4973006;28;20029;-85
2021/03/15 01:09:54;;;;;;;190.40;114.30;;;;;;;8.82;65.29;101359.38;4976556;28;20043;-84
2021/03/15 01:12:21;;;;;;;183.98;113.40;;;;;;;9.74;64.91;101508.31;4969229;28;20042;-85
2021/03/15 01:14:48;;;;;;;180.32;108.38;;;;;;;9.79;63.98;101481.69;4972798;28;20082;-85
2021/03/15 01:17:16;;;;;;;176.70;106.95;;;;;;;9.96;64.04;101501.31;4973445;28;20031;-84
2021/03/15 01:19:45;;;;;;;179.57;106.43;;;;;;;9.49;63.44;101420.69;4973651;28;20021;-84
2021/03/15 01:22:13;;;;;;;166.35;99.30;;;;;;;9.70;62.52;101449.88;4973850;28;20027;-85
2021/03/15 01:24:40;;;;;;;163.00;97.40;;;;;;;9.52;64.06;101525.28;4958593;28;20443;-84
2021/03/15 01:27:07;;;;;;;163.57;93.10;;;;;;;9.37;63.38;101428.88;4955830;28;20042;-84
2021/03/15 01:29:34;;;;;;;156.00;93.35;;;;;;;9.52;63.65;101456.19;4972198;28;20480;-84
2021/03/15 01:32:01;;;;;;;161.30;92.90;;;;;;;8.48;63.25;101298.00;4969764;28;20384;-84
2021/03/15 01:34:28;;;;;;;161.48;94.20;;;;;;;9.51;63.41;101437.91;4972907;28;20440;-85
2021/03/15 01:36:55;;;;;;;154.88;94.45;;;;;;;9.83;63.48;101469.09;4973330;28;20053;-84
2021/03/15 01:39:22;;;;;;;149.82;89.53;;;;;;;9.81;62.58;101428.91;4973205;28;20030;-85
2021/03/15 01:41:49;;;;;;;165.80;93.50;;;;;;;10.10;62.05;101456.91;4973568;28;20023;-84
2021/03/15 01:44:16;;;;;;;156.25;93.35;;;;;;;9.70;61.46;101378.78;4956211;28;20041;-85
2021/03/15 01:46:43;;;;;;;159.30;92.15;;;;;;;9.59;61.79;101354.69;4974079;28;20026;-86
2021/03/15 01:49:10;;;;;;;157.13;92.30;;;;;;;9.93;61.87;101399.41;4976816;28;20072;-84
2021/03/15 01:51:37;;;;;;;162.43;98.78;;;;;;;10.04;61.75;101392.25;4995189;28;20030;-85
2021/03/15 01:54:04;;;;;;;163.15;94.90;;;;;;;10.22;61.45;101421.84;4975629;28;20030;-84
2021/03/15 01:56:31;;;;;;;166.55;96.55;;;;;;;9.49;62.31;101329.47;4975451;28;20030;-84
2021/03/15 01:58:59;;;;;;;163.90;90.78;;;;;;;10.04;61.65;101372.91;4975233;28;20026;-85
2021/03/15 02:01:26;;;;;;;170.15;97.88;;;;;;;10.23;60.78;101362.66;4975029;28;20014;-85
2021/03/15 02:03:52;;;;;;;154.60;94.03;;;;;;;10.16;61.10;101338.94;4968489;28;20031;-85
2021/03/15 02:06:19;;;;;;;164.38;96.85;;;;;;;9.81;60.81;101285.09;4973328;28;20023;-83
2021/03/15 02:08:46;;;;;;;169.65;96.30;;;;;;;10.64;60.63;101387.06;4954896;28;20035;-86
2021/03/15 02:11:43;;;;;;;158.15;97.60;;;;;;;10.08;60.37;101265.38;4954339;28;20046;-84
2021/03/15 02:14:31;;;;;;;155.02;94.60;;;;;;;11.32;60.04;101434.84;4948017;28;20090;-86
2021/03/15 02:17:36;;;;;;;167.95;98.35;;;;;;;10.89;58.99;101333.44;4972627;28;20031;-85
2021/03/15 02:20:28;;;;;;;157.52;94.55;;;;;;;11.62;58.36;101424.75;4955477;28;20118;-83
2021/03/15 02:23:19;;;;;;;161.23;94.90;;;;;;;11.24;57.64;101368.69;4955132;28;20026;-85
2021/03/15 02:26:22;;;;;;;164.18;97.03;;;;;;;11.44;58.47;101428.47;4955203;28;20026;-85
2021/03/15 02:29:17;;;;;;;144.95;90.35;;;;;;;11.47;57.90;101422.47;4955411;28;20049;-84
2021/03/15 02:31:56;;;;;;;158.75;91.82;;;;;;;11.68;56.97;101425.69;4955175;28;20034;-83
2021/03/15 02:35:08;;;;;;;151.38;91.28;;;;;;;11.28;57.13;101360.72;4954986;28;20049;-83
2021/03/15 02:37:47;;;;;;;146.32;87.53;;;;;;;11.61;56.57;101378.69;4962504;28;20027;-83
2021/03/15 02:40:23;;;;;;;159.57;90.88;;;;;;;11.64;56.54;101362.41;4962312;28;20503;-84
2021/03/15 02:42:53;;;;;;;146.00;89.28;;;;;;;11.78;55.63;101331.63;4981597;28;20070;-84
2021/03/15 02:45:20;;;;;;;;;;;;;;;12.38;55.57;101393.44;4956755;28;20039;-85
2021/03/15 02:47:50;;;;;;;150.95;85.63;;;;;;;11.75;55.02;101318.25;4959837;28;20446;-84
2021/03/15 02:50:18;;;;;;;138.63;87.22;;;;;;;10.48;55.21;101151.34;4977242;28;20042;-86
2021/03/15 02:52:48;;;;;;;141.82;84.38;;;;;;;11.17;55.41;101246.81;4958820;28;20031;-85
2021/03/15 02:55:23;;;;;;;147.90;85.78;;;;;;;11.88;55.43;101334.63;4976080;28;20027;-85
2021/03/15 02:57:52;;;;;;;136.75;82.78;;;;;;;11.14;54.87;101186.34;4959401;28;20066;-85
2021/03/15 03:00:21;;;;;;;142.85;84.03;;;;;;;12.05;53.88;101317.22;4957210;28;20728;-85
2021/03/15 03:02:49;;;;;;;138.38;83.28;;;;;;;11.99;53.36;101291.28;4939709;29;20023;-85
2021/03/15 03:05:18;;;;;;;135.02;80.97;;;;;;;12.18;53.07;101344.72;4954766;29;20488;-86
2021/03/15 03:07:52;;;;;;;154.13;83.13;;;;;;;11.71;53.01;101258.81;4966005;28;20031;-86
2021/03/15 03:10:22;;;;;;;140.55;82.32;;;;;;;11.82;52.57;101232.94;4975016;28;20055;-86
2021/03/15 03:12:52;;;;;;;128.70;78.78;;;;;;;12.20;52.95;101299.19;4957031;29;20066;-85
2021/03/15 03:15:24;;;;;;;134.20;80.97;;;;;;;12.25;51.49;101263.22;4939024;29;20034;-84
2021/03/15 03:17:53;;;;;;;131.50;76.40;;;;;;;12.48;52.14;101323.34;4938822;29;20413;-85
2021/03/15 03:20:22;;;;;;;121.97;74.88;;;;;;;11.87;53.05;101271.03;4956794;29;20500;-85
2021/03/15 03:22:52;;;;;;;129.25;74.95;;;;;;;12.39;52.88;101314.59;4943693;29;21482;-85
2021/03/15 03:25:23;;;;;;;138.32;77.55;;;;;;;12.17;53.08;101314.41;4959957;29;20039;-85
2021/03/15 03:28:01;;;;;;;127.55;78.22;;;;;;;11.63;53.49;101204.53;4956309;29;20046;-86
2021/03/15 03:30:33;;;;;;;123.22;73.97;;;;;;;12.37;52.61;101315.91;4938704;28;20035;-85
2021/03/15 03:33:03;;;;;;;121.03;73.78;;;;;;;12.34;52.37;101281.16;4975373;28;20034;-86
2021/03/15 03:35:30;;;;;;;121.45;74.15;;;;;;;11.87;51.27;101177.56;4956977;28;20037;-85
2021/03/15 03:37:58;;;;;;;130.50;75.80;;;;;;;12.18;51.55;101230.91;4966544;28;20070;-86
2021/03/15 03:40:26;;;;;;;118.40;71.93;;;;;;;11.98;51.11;101223.00;4955371;29;20118;-85
2021/03/15 03:42:54;;;;;;;124.45;75.10;;;;;;;12.47;50.95;101293.88;4957602;29;20130;-88
2021/03/15 03:45:22;;;;;;;123.45;75.25;;;;;;;12.35;50.42;101259.78;4960033;28;20089;-92
2021/03/15 03:47:50;;;;;;;124.25;72.47;;;;;;;12.28;51.51;101260.78;4946145;28;20582;-89
2021/03/15 03:50:40;;;;;;;123.80;70.97;;;;;;;12.83;50.37;101288.97;4960781;28;20042;-89
2021/03/15 03:53:11;;;;;;;143.07;78.53;;;;;;;12.95;50.04;101263.84;4968226;28;20042;-91
2021/03/15 03:56:02;;;;;;;122.50;72.50;;;;;;;13.06;50.08;101252.88;4961811;28;20069;-91
2021/03/15 03:58:32;;;;;;;120.78;71.80;;;;;;;12.95;50.28;101224.94;4957404;28;20563;-91
2021/03/15 04:01:01;;;;;;;131.43;75.57;;;;;;;12.87;49.22;101172.59;4963282;28;20046;-92
2021/03/15 04:03:29;;;;;;;120.63;74.33;;;;;;;13.34;49.56;101201.03;4956993;28;20066;-91
2021/03/15 04:06:05;;;;;;;124.53;78.85;;;;;;;12.65;48.32;101042.81;4965188;28;20046;-92
2021/03/15 04:08:41;;;;;;;134.05;81.57;;;;;;;13.28;48.61;101159.25;4965766;28;20038;-91
2021/03/15 04:11:15;;;;;;;125.53;77.85;;;;;;;12.69;48.56;101052.31;4966805;28;20047;-91
2021/03/15 04:14:00;;;;;;;125.47;74.63;;;;;;;13.25;48.59;101115.28;4987647;28;20047;-89
2021/03/15 04:16:33;;;;;;;131.38;80.20;;;;;;;13.51;48.72;101174.03;4991258;23;20059;-84
2021/03/15 04:19:05;;;;;;;142.18;83.05;;;;;;;13.55;49.65;101211.34;4991704;28;20026;-92
2021/03/15 04:21:36;;;;;;;145.98;84.57;;;;;;;12.95;49.25;101108.22;5003234;28;20027;-92
2021/03/15 04:24:06;;;;;;;143.80;82.57;;;;;;;12.11;49.92;100960.97;4996734;28;20042;-93
2021/03/15 04:26:34;;;;;;;140.52;83.65;;;;;;;11.49;49.62;100836.03;5001987;28;20030;-93
2021/03/15 04:29:02;;;;;;;145.00;83.85;;;;;;;13.89;49.53;101192.78;4986910;28;20031;-94
2021/03/15 04:31:29;;;;;;;131.07;82.75;;;;;;;14.12;48.66;101165.75;4999438;28;20169;-92
2021/03/15 04:33:57;;;;;;;135.98;86.18;;;;;;;13.86;48.85;101115.41;4987395;28;20035;-90
2021/03/15 04:36:25;;;;;;;150.02;86.78;;;;;;;13.36;48.75;101054.22;4986010;28;20038;-92
2021/03/15 04:38:53;;;;;;;144.18;86.60;;;;;;;14.03;49.18;101191.28;4999141;28;20030;-91
2021/03/15 04:41:21;;;;;;;137.45;84.13;;;;;;;13.57;50.11;101185.22;4984749;28;20041;-91
2021/03/15 04:43:49;;;;;;;131.20;83.10;;;;;;;13.55;50.64;101183.53;4985523;28;20030;-90
2021/03/15 04:46:21;;;;;;;131.00;82.10;;;;;;;12.69;50.15;101066.22;4994054;28;20061;-90
2021/03/15 04:48:48;;;;;;;138.88;79.68;;;;;;;13.08;49.87;101095.06;5000032;28;20026;-91
2021/03/15 04:51:21;;;;;;;137.38;83.72;;;;;;;13.28;49.32;101103.66;4996526;28;20081;-91
2021/03/15 04:53:48;;;;;;;133.35;82.95;;;;;;;13.54;50.23;101137.34;5009525;28;20046;-93
2021/03/15 04:56:17;;;;;;;132.63;83.05;;;;;;;13.47;50.37;101138.63;4995414;28;20046;-91
2021/03/15 04:58:50;;;;;;;129.73;82.45;;;;;;;13.07;48.70;101055.28;4985366;28;20030;-92
2021/03/15 05:01:40;;;;;;;141.55;85.50;;;;;;;13.43;49.43;101124.38;5014407;28;20019;-90
2021/03/15 05:04:09;;;;;;;;;;;;;;;13.28;49.67;101117.56;4979978;28;20054;-90
2021/03/15 05:06:39;;;;;;;136.75;83.43;;;;;;;13.32;49.49;101114.25;4979813;28;19905;-90
2021/03/15 05:09:11;;;;;;;133.77;79.05;;;;;;;12.99;49.28;101031.59;4970314;28;20046;-90
2021/03/15 05:11:41;;;;;;;146.90;88.43;;;;;;;12.81;49.40;101018.00;4964255;28;20166;-92
2021/03/15 05:14:09;;;;;;;131.52;83.55;;;;;;;12.54;49.30;100955.72;4998597;28;20037;-90
2021/03/15 05:16:46;;;;;;;129.50;83.28;;;;;;;13.31;49.81;101041.09;4967618;28;20051;-90
2021/03/15 05:19:14;;;;;;;126.55;80.40;;;;;;;13.46;48.34;101068.28;4979820;28;20037;-91
2021/03/15 05:21:44;;;;;;;129.63;79.80;;;;;;;13.35;48.87;101047.81;4962549;28;20015;-93
2021/03/15 05:24:15;;;;;;;131.55;79.10;;;;;;;12.45;48.47;100907.28;4991145;28;21166;-95
2021/03/15 05:26:43;;;;;;;135.90;85.40;;;;;;;13.58;48.77;101079.25;4998316;28;20061;-92
2021/03/15 05:29:14;;;;;;;126.43;77.65;;;;;;;13.12;48.77;101018.38;4962462;28;20476;-92
2021/03/15 05:31:45;;;;;;;132.95;82.05;;;;;;;13.09;49.01;101055.84;4972351;28;20038;-94
2021/03/15 05:34:15;;;;;;;119.63;78.38;;;;;;;13.34;48.22;101053.63;5009965;28;20042;-94
2021/03/15 05:36:45;;;;;;;136.27;80.35;;;;;;;12.52;48.41;100938.50;5001259;28;20035;-92
2021/03/15 05:39:13;;;;;;;127.32;76.75;;;;;;;13.44;48.32;101069.59;5008424;28;20019;-94
2021/03/15 05:42:00;;;;;;;131.50;77.85;;;;;;;12.61;48.30;100950.00;4981094;28;20038;-92
2021/03/15 05:45:00;;;;;;;123.28;75.38;;;;;;;13.78;45.82;101063.84;5011637;28;20065;-93
2021/03/15 05:48:03;;;;;;;119.25;72.45;;;;;;;13.99;46.50;101059.31;5005461;28;20015;-95
2021/03/15 05:51:04;;;;;;;117.90;73.60;;;;;;;14.08;46.67;101046.56;4987941;28;20101;-93
2021/03/15 05:54:17;;;;;;;122.60;77.03;;;;;;;13.84;46.96;101056.38;4974374;28;20037;-94
2021/03/15 05:57:03;;;;;;;124.50;72.57;;;;;;;13.80;47.15;101068.03;4966027;28;20062;-95
2021/03/15 05:59:36;;;;;;;129.10;78.32;;;;;;;13.80;47.88;101081.94;5001703;28;20032;-92
2021/03/15 06:10:14;;;;;;;126.40;77.80;;;;;;;13.64;50.56;101046.75;4980091;28;20057;-89
2021/03/15 06:12:55;;;;;;;125.45;76.75;;;;;;;13.34;51.48;101036.94;4961933;28;20559;-91
2021/03/15 06:15:38;;;;;;;129.48;80.68;;;;;;;13.19;51.85;100993.16;4966036;28;20027;-92
2021/03/15 06:18:08;;;;;;;130.50;80.72;;;;;;;12.98;50.68;100954.00;4996544;28;20038;-91
2021/03/15 06:20:37;;;;;;;129.57;78.95;;;;;;;12.57;49.04;100907.16;4965312;28;20082;-92
2021/03/15 06:23:06;;;;;;;129.40;79.28;;;;;;;12.89;49.73;100992.53;4968699;28;20039;-93
2021/03/15 06:25:44;;;;;;;142.85;83.63;;;;;;;12.59;50.99;101014.13;4989734;28;20031;-95
2021/03/15 06:28:12;;;;;;;132.65;83.63;;;;;;;13.03;51.66;101058.84;4985437;28;20042;-91
2021/03/15 06:30:43;;;;;;;144.13;84.30;;;;;;;12.94;51.54;101031.50;4971182;28;20027;-91
2021/03/15 06:33:11;;;;;;;143.35;83.28;;;;;;;12.67;52.82;101079.50;4965927;28;20034;-92
2021/03/15 06:35:45;;;;;;;135.85;82.88;;;;;;;11.83;52.96;100920.31;4983892;28;20035;-92
2021/03/15 06:38:17;;;;;;;143.35;86.50;;;;;;;12.72;53.61;101092.63;4967343;28;20059;-92
2021/03/15 06:40:49;;;;;;;145.75;86.47;;;;;;;12.78;54.04;101066.59;4984664;28;20066;-93
2021/03/15 06:43:20;;;;;;;158.55;92.70;;;;;;;11.84;54.74;100955.28;4949862;28;20035;-92
2021/03/15 06:45:51;;;;;;;146.10;91.18;;;;;;;11.34;56.17;100979.97;4969270;28;20031;-92
2021/03/15 06:48:19;;;;;;;156.10;93.60;;;;;;;11.47;56.62;100995.47;4981300;28;20031;-91
2021/03/15 06:50:50;;;;;;;158.98;93.38;;;;;;;11.51;56.80;101021.56;4965105;28;20023;-92
2021/03/15 06:53:17;;;;;;;174.68;92.95;;;;;;;11.85;57.23;101090.97;4969980;28;20054;-92
2021/03/15 06:55:49;;;;;;;160.00;95.80;;;;;;;11.83;57.34;101095.09;4962984;28;20031;-91
2021/03/15 06:58:22;;;;;;;169.98;96.40;;;;;;;11.76;57.59;101082.22;4965399;28;20035;-90
2021/03/15 07:01:16;;;;;;;154.30;95.90;;;;;;;10.54;57.90;100879.03;4981748;28;20038;-90
2021/03/15 07:03:46;;;;;;;158.57;93.78;;;;;;;10.84;57.90;100970.44;4978970;28;20039;-91
2021/03/15 07:06:15;;;;;;;127.80;72.97;;;;;;;10.85;58.02;100977.66;4981625;28;20086;-90
2021/03/15 07:08:42;;;;;;;159.25;97.50;;;;;;;11.52;58.16;101087.03;4975839;28;20055;-87
2021/03/15 07:11:28;;;;;;;161.70;93.93;;;;;;;11.80;57.51;101088.09;4955598;28;20042;-87
2021/03/15 07:14:02;;;;;;;161.32;92.00;;;;;;;9.83;56.86;100760.28;4973010;28;20027;-87
2021/03/15 07:16:32;;;;;;;150.93;91.75;;;;;;;11.56;56.89;101104.00;4972299;28;20027;-88
2021/03/15 07:19:22;;;;;;;148.57;86.93;;;;;;;11.54;56.66;101061.84;4967002;28;20484;-92
2021/03/15 07:21:49;;;;;;;147.70;91.43;;;;;;;10.98;56.88;100993.16;4960244;28;20281;-85
2021/03/15 07:24:17;;;;;;;155.50;91.85;;;;;;;11.13;56.76;100992.59;4978659;28;20035;-94
2021/03/15 07:26:48;;;;;;;166.20;94.32;;;;;;;10.47;56.78;100896.88;4965839;28;20031;-93
2021/03/15 07:29:17;;;;;;;154.77;92.13;;;;;;;11.23;56.28;101031.59;4985890;28;20057;-90
2021/03/15 07:31:46;;;;;;;153.40;83.80;;;;;;;11.50;56.94;101078.13;4994056;28;20027;-92
2021/03/15 07:34:23;;;;;;;157.93;92.97;;;;;;;11.33;57.48;101083.63;4998926;28;20377;-91
2021/03/15 07:36:54;;;;;;;151.20;92.15;;;;;;;11.24;58.14;101091.50;4965060;28;20034;-91
2021/03/15 07:39:24;;;;;;;157.35;95.95;;;;;;;11.12;59.00;101087.91;4985215;28;20027;-89
2021/03/15 07:41:52;;;;;;;;;;;;;;;11.19;58.76;101058.94;4977933;28;20492;-92
2021/03/15 07:44:22;;;;;;;163.68;93.93;;;;;;;11.35;58.28;101054.56;4964291;28;19910;-84
2021/03/15 07:46:51;;;;;;;167.02;91.88;;;;;;;11.22;58.57;101065.94;4978102;28;20034;-81
2021/03/15 07:49:39;;;;;;;164.05;92.80;;;;;;;10.27;59.16;100961.75;4972337;28;20015;-86
2021/03/15 07:52:11;;;;;;;156.60;93.90;;;;;;;10.94;58.92;101059.31;4963812;28;20431;-80
2021/03/15 07:54:40;;;;;;;154.23;91.20;;;;;;;11.13;58.65;101064.66;4973340;28;20384;-81
2021/03/15 07:57:16;;;;;;;161.10;88.93;;;;;;;11.40;57.51;101039.94;4956920;28;20033;-80
2021/03/15 07:59:48;;;;;;;146.98;87.13;;;;;;;11.50;56.80;101031.00;4974621;28;20030;-79
2021/03/15 08:02:21;;;;;;;151.68;89.88;;;;;;;11.48;55.89;101025.69;4972056;28;21290;-80
2021/03/15 08:04:48;;;;;;;151.30;86.72;;;;;;;10.92;56.56;100953.41;4973927;28;20038;-81
2021/03/15 08:07:17;;;;;;;139.18;86.65;;;;;;;11.31;56.20;100986.00;4972698;28;20022;-80
2021/03/15 08:09:55;;;;;;;141.90;81.60;;;;;;;10.85;55.48;100883.47;4974091;28;20046;-84
2021/03/15 08:12:35;;;;;;;132.73;76.32;;;;;;;11.54;54.74;101006.38;4974024;28;20035;-79
2021/03/15 08:15:06;;;;;;;;;;;;;;;11.46;54.28;101000.16;4974439;28;20031;-80
2021/03/15 08:17:37;;;;;;;139.05;77.97;;;;;;;11.46;54.35;101004.84;4969466;28;20068;-81
2021/03/15 08:20:06;;;;;;;126.97;76.22;;;;;;;10.05;54.24;100787.28;4973462;28;20030;-80
2021/03/15 08:22:39;;;;;;;124.53;74.72;;;;;;;11.54;54.21;101003.59;4974287;28;20027;-79
2021/03/15 08:25:09;;;;;;;128.00;71.50;;;;;;;11.14;53.89;100966.56;4972838;28;20114;-79
2021/03/15 08:27:43;;;;;;;114.67;66.73;;;;;;;11.43;53.75;101022.84;4972585;28;20689;-79
2021/03/15 08:30:17;;;;;;;120.88;68.55;;;;;;;10.70;53.68;100911.72;4973294;28;20039;-78
2021/03/15 08:32:46;;;;;;;122.25;72.55;;;;;;;11.10;53.70;100974.53;4965211;28;20035;-79
2021/03/15 08:35:17;;;;;;;107.30;62.47;;;;;;;11.18;53.74;100993.53;4972089;28;20031;-79
2021/03/15 08:37:54;;;;;;;105.13;64.88;;;;;;;11.18;53.62;101003.78;4965241;28;20125;-79
2021/03/15 08:40:44;;;;;;;96.20;56.58;;;;;;;11.24;53.67;100997.25;4973400;28;20387;-80
2021/03/15 08:43:25;;;;;;;108.95;63.80;;;;;;;11.17;53.96;100983.53;4967361;28;20055;-79
2021/03/15 08:45:55;;;;;;;111.03;60.53;;;;;;;11.26;53.91;100977.59;4971554;28;20041;-78
2021/03/15 08:48:41;;;;;;;100.57;62.13;;;;;;;10.96;54.55;100985.09;4971855;28;20030;-79
2021/03/15 08:51:10;;;;;;;102.65;60.13;;;;;;;10.56;54.40;100914.78;4969008;28;20105;-79
2021/03/15 08:53:40;;;;;;;92.85;54.65;;;;;;;10.99;53.77;100967.97;4971884;28;20026;-80
2021/03/15 08:56:37;;;;;;;101.38;55.20;;;;;;;10.91;54.10;100966.44;4953855;28;20026;-80
2021/03/15 08:59:09;;;;;;;94.13;54.65;;;;;;;10.47;54.15;100872.81;4968636;28;20101;-80
2021/03/15 09:01:51;;;;;;;88.70;49.33;;;;;;;10.90;53.89;100947.28;4974514;28;20194;-82
2021/03/15 09:04:43;;;;;;;84.25;50.28;;;;;;;11.06;53.38;100965.88;4965371;28;20031;-79
2021/03/15 09:07:31;;;;;;;76.90;46.95;;;;;;;10.94;53.58;100965.13;4972394;28;20088;-79
2021/03/15 09:10:19;;;;;;;79.72;48.35;;;;;;;10.44;53.35;100870.53;4966404;28;20576;-76
2021/03/15 09:13:11;;;;;;;83.35;47.25;;;;;;;11.15;52.68;100957.16;4966015;28;20473;-76
2021/03/15 09:15:40;;;;;;;76.25;45.30;;;;;;;10.56;52.96;100880.75;4970152;28;20134;-77
2021/03/15 09:18:41;;;;;;;79.20;48.30;;;;;;;11.18;53.22;100989.94;4960184;28;20019;-76
2021/03/15 09:21:26;;;;;;;74.60;44.90;;;;;;;11.26;53.64;100983.13;4961394;28;20429;-76
2021/03/15 09:23:58;;;;;;;76.88;44.75;;;;;;;11.20;53.92;101001.59;4967176;28;20022;-79
2021/03/15 09:26:25;;;;;;;77.93;45.75;;;;;;;11.18;54.22;100988.00;4971847;28;20031;-80
2021/03/15 09:28:56;;;;;;;76.05;46.95;;;;;;;11.21;54.44;101006.91;4963902;28;20097;-78
2021/03/15 09:31:24;;;;;;;81.30;45.83;;;;;;;10.89;54.23;100913.19;4956778;28;20543;-76
2021/03/15 09:33:51;;;;;;;82.82;46.92;;;;;;;11.01;54.44;100956.63;4969040;28;20050;-73
2021/03/15 09:36:31;;;;;;;79.28;47.97;;;;;;;11.17;54.86;100991.03;4955874;28;20042;-72
2021/03/15 09:38:58;;;;;;;79.13;48.28;;;;;;;10.56;54.78;100886.28;4958653;28;20031;-73
2021/03/15 09:41:27;;;;;;;71.05;41.67;;;;;;;11.10;55.03;100980.09;4971129;28;20043;-75
2021/03/15 09:43:54;;;;;;;74.72;46.28;;;;;;;11.03;55.05;100960.84;4963979;28;20034;-74
2021/03/15 09:46:29;;;;;;;75.57;47.38;;;;;;;11.17;54.77;100969.69;4964352;28;20058;-75
2021/03/15 09:48:56;;;;;;;71.13;42.92;;;;;;;11.13;55.04;100975.97;4967974;28;20026;-74
2021/03/15 09:51:27;;;;;;;76.68;45.10;;;;;;;10.87;55.22;100953.34;4971233;28;20106;-74
2021/03/15 09:53:55;;;;;;;72.68;44.72;;;;;;;10.35;55.25;100841.53;4970465;28;20046;-74
2021/03/15 09:56:24;;;;;;;76.85;47.53;;;;;;;10.44;55.69;100859.47;4972974;28;20027;-73
2021/03/15 09:58:52;;;;;;;58.33;35.08;;;;;;;10.99;56.15;100973.50;4974041;28;20085;-80
2021/03/15 10:01:21;;;;;;;78.05;47.50;;;;;;;10.97;56.67;100967.38;4964601;28;20031;-72
2021/03/15 10:03:52;;;;;;;70.90;46.28;;;;;;;10.70;57.15;100931.13;4969499;28;20053;-73
2021/03/15 10:06:22;;;;;;;74.78;45.08;;;;;;;10.74;57.22;100916.53;4971174;28;20127;-83
2021/03/15 10:08:50;;;;;;;77.07;46.45;;;;;;;10.14;57.28;100824.53;4975333;28;20055;-85
2021/03/15 10:11:17;;;;;;;78.35;46.75;;;;;;;9.88;57.39;100779.75;4971107;28;20035;-84
2021/03/15 10:13:59;;;;;;;78.72;48.45;;;;;;;10.52;57.68;100872.09;4973308;28;20031;-88
2021/03/15 10:16:26;;;;;;;78.28;46.22;;;;;;;10.08;57.95;100795.91;4975225;28;20114;-87
2021/03/15 10:18:53;;;;;;;80.60;49.30;;;;;;;10.63;58.15;100853.75;4976580;28;20054;-84
2021/03/15 10:21:31;;;;;;;77.93;49.63;;;;;;;10.47;58.75;100845.13;4955108;28;20070;-85
2021/03/15 10:23:58;;;;;;;76.32;46.95;;;;;;;9.93;59.43;100771.53;4971341;28;20038;-86
2021/03/15 10:26:25;;;;;;;84.72;48.45;;;;;;;11.01;59.98;100928.94;4970754;28;20035;-85
2021/03/15 10:28:53;;;;;;;85.93;51.92;;;;;;;10.60;60.27;100865.31;4972167;28;20023;-84
2021/03/15 10:31:24;;;;;;;80.03;48.22;;;;;;;11.00;60.96;100935.56;4971862;28;20377;-85
2021/03/15 10:33:52;;;;;;;86.20;47.13;;;;;;;10.70;61.52;100904.25;4953135;28;20043;-86
2021/03/15 10:36:27;;;;;;;81.72;48.47;;;;;;;10.04;62.35;100807.72;4969064;28;20057;-86
2021/03/15 10:38:55;;;;;;;82.93;51.17;;;;;;;10.89;62.62;100935.34;4951546;28;20030;-86
2021/03/15 10:41:23;;;;;;;74.20;46.60;;;;;;;10.68;62.25;100890.69;4969362;28;20059;-91
2021/03/15 10:43:50;;;;;;;78.55;50.88;;;;;;;10.81;62.72;100903.38;4976109;28;20034;-90
2021/03/15 10:46:26;;;;;;;92.18;49.13;;;;;;;9.42;61.75;100649.72;4960606;28;20031;-87
2021/03/15 10:48:54;;;;;;;83.95;46.75;;;;;;;11.10;62.15;100944.06;4972515;28;20034;-89
2021/03/15 10:51:21;;;;;;;81.35;48.53;;;;;;;10.73;61.74;100859.47;4972869;28;20027;-89
2021/03/15 10:53:50;;;;;;;84.38;49.65;;;;;;;10.71;61.83;100858.03;4970556;28;20031;-89
2021/03/15 10:56:23;;;;;;;62.33;39.33;;;;;;;10.77;61.55;100863.41;4959607;28;20027;-89
2021/03/15 10:58:51;;;;;;;77.97;48.65;;;;;;;11.06;62.31;100954.78;4967203;28;20040;-90
2021/03/15 11:01:26;;;;;;;78.50;51.35;;;;;;;10.94;62.85;100976.19;4959787;28;20027;-90
2021/03/15 11:03:54;;;;;;;73.05;46.53;;;;;;;10.82;63.13;100973.47;4971449;28;20062;-90
2021/03/15 11:06:27;;;;;;;75.63;48.78;;;;;;;9.85;63.61;100811.50;4972296;28;20038;-90
2021/03/15 11:08:57;;;;;;;85.53;49.88;;;;;;;10.63;63.82;100931.28;4959296;28;20081;-90
2021/03/15 11:11:31;;;;;;;90.82;52.00;;;;;;;10.33;64.74;100901.84;4978535;28;20054;-89
2021/03/15 11:14:02;;;;;;;82.20;51.25;;;;;;;10.27;65.45;100900.88;4960744;28;20126;-89
2021/03/15 11:16:32;;;;;;;78.45;49.17;;;;;;;10.67;65.21;100987.81;4982598;28;20432;-86
2021/03/15 11:19:05;;;;;;;86.78;49.60;;;;;;;10.44;65.13;100978.50;4952604;28;20042;-89
2021/03/15 11:21:34;;;;;;;86.70;51.65;;;;;;;10.30;65.09;100991.72;4988143;28;20044;-91
2021/03/15 11:24:03;;;;;;;91.72;51.75;;;;;;;10.23;66.53;100983.53;4958575;28;20030;-86
2021/03/15 11:26:50;;;;;;;86.05;52.83;;;;;;;9.78;66.87;100948.19;4973905;28;20144;-86
2021/03/15 11:29:21;;;;;;;98.90;54.25;;;;;;;9.72;68.13;100966.59;4980694;28;20074;-93
2021/03/15 11:31:54;;;;;;;86.95;51.72;;;;;;;6.70;68.17;100504.59;4988638;28;20039;-96
2021/03/15 11:34:25;;;;;;;88.60;51.30;;;;;;;7.50;68.52;100634.03;4969770;28;20034;-92
2021/03/15 11:36:53;;;;;;;84.90;54.42;;;;;;;9.53;68.61;100925.25;4976599;28;20067;-88